Lucas, Iowa
Current Conditions -  °F | °C
As of 5:55 AM on Friday 28 Nov 2014 (Local Time) from KCNC Reporting Station
Broken Clouds Broken Clouds  
Wind Chill: 14°   Ceiling: 27000
Heat Index: 25°   Visibility: 10mi
Dew Point: 21°   Wind: 12mph
Humidity: 86%   Direction: 150°SSE
Pressure: 30.02"   Gusts: NA
Location:  41.03°N, 93.46°W
Report Text: KCNC 281155Z AUTO 15010KT 10SM SCT250 BKN270 BKN300 M04/M06 A3002 RMK AO2
Loading
Personal Weather Stations






























Interactive Weather Map New forecast layout! Learn more

10-Day Weather Forecast

Advertisements
Track Severe Weather on mobile